sensor_id;sensor_type;location;lat;lon;timestamp;temperature;humidity
39525;DHT22;25203;50.754;6.978;2023-07-29T00:01:40;19.40;99.90
39525;DHT22;25203;50.754;6.978;2023-07-29T00:03:41;19.40;99.90
39525;DHT22;25203;50.754;6.978;2023-07-29T00:05:42;19.40;99.90
39525;DHT22;25203;50.754;6.978;2023-07-29T00:07:42;19.40;99.90
39525;DHT22;25203;50.754;6.978;2023-07-29T00:09:43;19.50;99.90
39525;DHT22;25203;50.754;6.978;2023-07-29T00:11:43;19.50;99.90
39525;DHT22;25203;50.754;6.978;2023-07-29T00:13:44;19.50;99.90
39525;DHT22;25203;50.754;6.978;2023-07-29T00:15:45;19.50;99.90
39525;DHT22;25203;50.754;6.978;2023-07-29T00:17:45;19.60;99.90
39525;DHT22;25203;50.754;6.978;2023-07-29T00:19:46;19.60;99.90
39525;DHT22;25203;50.754;6.978;2023-07-29T00:21:47;19.60;99.90
39525;DHT22;25203;50.754;6.978;2023-07-29T00:23:47;19.60;99.90
39525;DHT22;25203;50.754;6.978;2023-07-29T00:25:48;19.60;99.90
39525;DHT22;25203;50.754;6.978;2023-07-29T00:27:49;19.70;99.90
39525;DHT22;25203;50.754;6.978;2023-07-29T00:29:49;19.60;99.90
39525;DHT22;25203;50.754;6.978;2023-07-29T00:31:50;19.60;99.90
39525;DHT22;25203;50.754;6.978;2023-07-29T00:33:50;19.60;99.90
39525;DHT22;25203;50.754;6.978;2023-07-29T00:35:53;19.60;99.90
39525;DHT22;25203;50.754;6.978;2023-07-29T00:37:53;19.60;99.90
39525;DHT22;25203;50.754;6.978;2023-07-29T00:39:54;19.60;99.90
39525;DHT22;25203;50.754;6.978;2023-07-29T00:41:55;19.60;99.90
39525;DHT22;25203;50.754;6.978;2023-07-29T00:43:55;19.70;99.90
39525;DHT22;25203;50.754;6.978;2023-07-29T00:45:56;19.70;99.90
39525;DHT22;25203;50.754;6.978;2023-07-29T00:47:58;19.70;99.90
39525;DHT22;25203;50.754;6.978;2023-07-29T00:49:59;19.70;99.90
39525;DHT22;25203;50.754;6.978;2023-07-29T00:52:00;19.70;99.90
39525;DHT22;25203;50.754;6.978;2023-07-29T00:54:00;19.70;99.90
39525;DHT22;25203;50.754;6.978;2023-07-29T00:56:01;19.80;99.90
39525;DHT22;25203;50.754;6.978;2023-07-29T00:58:02;19.80;99.90
39525;DHT22;25203;50.754;6.978;2023-07-29T01:00:03;19.80;99.90
39525;DHT22;25203;50.754;6.978;2023-07-29T01:02:05;19.80;99.90
39525;DHT22;25203;50.754;6.978;2023-07-29T01:04:05;19.80;99.90
39525;DHT22;25203;50.754;6.978;2023-07-29T01:06:16;19.70;99.90
39525;DHT22;25203;50.754;6.978;2023-07-29T01:08:52;19.70;99.90
39525;DHT22;25203;50.754;6.978;2023-07-29T01:11:03;19.70;99.90
39525;DHT22;25203;50.754;6.978;2023-07-29T01:13:33;19.70;99.90
39525;DHT22;25203;50.754;6.978;2023-07-29T01:18:06;19.60;99.90
39525;DHT22;25203;50.754;6.978;2023-07-29T01:20:19;19.60;99.90
39525;DHT22;25203;50.754;6.978;2023-07-29T01:22:21;19.60;99.90
39525;DHT22;25203;50.754;6.978;2023-07-29T01:24:22;19.60;99.90
39525;DHT22;25203;50.754;6.978;2023-07-29T01:26:22;19.70;99.90
39525;DHT22;25203;50.754;6.978;2023-07-29T01:28:24;19.70;99.90
39525;DHT22;25203;50.754;6.978;2023-07-29T01:30:31;19.60;99.90
39525;DHT22;25203;50.754;6.978;2023-07-29T01:34:51;19.70;99.90
39525;DHT22;25203;50.754;6.978;2023-07-29T01:36:57;19.70;99.90
39525;DHT22;25203;50.754;6.978;2023-07-29T01:39:00;19.70;99.90
39525;DHT22;25203;50.754;6.978;2023-07-29T01:41:03;19.70;99.90
39525;DHT22;25203;50.754;6.978;2023-07-29T01:43:04;19.70;99.90
39525;DHT22;25203;50.754;6.978;2023-07-29T01:45:05;19.70;99.90
39525;DHT22;25203;50.754;6.978;2023-07-29T01:47:06;19.70;99.90
39525;DHT22;25203;50.754;6.978;2023-07-29T01:49:06;19.70;99.90
39525;DHT22;25203;50.754;6.978;2023-07-29T01:51:07;19.80;99.90
39525;DHT22;25203;50.754;6.978;2023-07-29T01:53:09;19.80;99.90
39525;DHT22;25203;50.754;6.978;2023-07-29T01:55:10;19.80;99.90
39525;DHT22;25203;50.754;6.978;2023-07-29T01:57:11;19.80;99.90
39525;DHT22;25203;50.754;6.978;2023-07-29T01:59:11;19.80;99.90
39525;DHT22;25203;50.754;6.978;2023-07-29T02:01:13;19.80;99.90
39525;DHT22;25203;50.754;6.978;2023-07-29T02:03:14;19.70;99.90
39525;DHT22;25203;50.754;6.978;2023-07-29T02:05:15;19.70;99.90
39525;DHT22;25203;50.754;6.978;2023-07-29T02:07:15;19.70;99.90
39525;DHT22;25203;50.754;6.978;2023-07-29T02:09:16;19.70;99.90
39525;DHT22;25203;50.754;6.978;2023-07-29T02:11:16;19.70;99.90
39525;DHT22;25203;50.754;6.978;2023-07-29T02:13:17;19.70;99.90
39525;DHT22;25203;50.754;6.978;2023-07-29T02:15:18;19.70;99.90
39525;DHT22;25203;50.754;6.978;2023-07-29T02:17:19;19.60;99.90
39525;DHT22;25203;50.754;6.978;2023-07-29T02:19:19;19.60;99.90
39525;DHT22;25203;50.754;6.978;2023-07-29T02:21:20;19.60;99.90
39525;DHT22;25203;50.754;6.978;2023-07-29T02:23:20;19.50;99.90
39525;DHT22;25203;50.754;6.978;2023-07-29T02:25:21;19.50;99.90
39525;DHT22;25203;50.754;6.978;2023-07-29T02:27:22;19.50;99.90
39525;DHT22;25203;50.754;6.978;2023-07-29T02:29:22;19.40;99.90
39525;DHT22;25203;50.754;6.978;2023-07-29T02:31:24;19.40;99.90
39525;DHT22;25203;50.754;6.978;2023-07-29T02:33:25;19.30;99.90
39525;DHT22;25203;50.754;6.978;2023-07-29T02:35:25;19.30;99.90
39525;DHT22;25203;50.754;6.978;2023-07-29T02:37:26;19.20;99.90
39525;DHT22;25203;50.754;6.978;2023-07-29T02:39:26;19.20;99.90
39525;DHT22;25203;50.754;6.978;2023-07-29T02:41:27;19.10;99.90
39525;DHT22;25203;50.754;6.978;2023-07-29T02:43:28;19.00;99.90
39525;DHT22;25203;50.754;6.978;2023-07-29T02:45:29;19.00;99.90
39525;DHT22;25203;50.754;6.978;2023-07-29T02:47:29;18.90;99.90
39525;DHT22;25203;50.754;6.978;2023-07-29T02:49:30;18.70;99.90
39525;DHT22;25203;50.754;6.978;2023-07-29T02:51:30;18.50;99.90
39525;DHT22;25203;50.754;6.978;2023-07-29T02:53:32;18.20;99.90
39525;DHT22;25203;50.754;6.978;2023-07-29T02:55:32;18.00;99.90
39525;DHT22;25203;50.754;6.978;2023-07-29T02:57:33;17.80;99.90
39525;DHT22;25203;50.754;6.978;2023-07-29T02:59:34;17.70;99.90
39525;DHT22;25203;50.754;6.978;2023-07-29T03:01:34;17.60;99.90
39525;DHT22;25203;50.754;6.978;2023-07-29T03:03:35;17.50;99.90
39525;DHT22;25203;50.754;6.978;2023-07-29T03:05:35;17.40;99.90
39525;DHT22;25203;50.754;6.978;2023-07-29T03:07:37;17.40;99.90
39525;DHT22;25203;50.754;6.978;2023-07-29T03:09:38;17.30;99.90
39525;DHT22;25203;50.754;6.978;2023-07-29T03:11:39;17.20;99.90
39525;DHT22;25203;50.754;6.978;2023-07-29T03:13:40;17.20;99.90
39525;DHT22;25203;50.754;6.978;2023-07-29T03:15:41;17.20;99.90
39525;DHT22;25203;50.754;6.978;2023-07-29T03:17:42;17.20;99.90
39525;DHT22;25203;50.754;6.978;2023-07-29T03:19:42;17.10;99.90
39525;DHT22;25203;50.754;6.978;2023-07-29T03:21:43;17.10;99.90
39525;DHT22;25203;50.754;6.978;2023-07-29T03:23:43;17.10;99.90
39525;DHT22;25203;50.754;6.978;2023-07-29T03:25:47;17.20;99.90
39525;DHT22;25203;50.754;6.978;2023-07-29T03:27:48;17.20;99.90
39525;DHT22;25203;50.754;6.978;2023-07-29T03:29:49;17.20;99.90
39525;DHT22;25203;50.754;6.978;2023-07-29T03:31:50;17.30;99.90
39525;DHT22;25203;50.754;6.978;2023-07-29T03:33:50;17.30;99.90
39525;DHT22;25203;50.754;6.978;2023-07-29T03:35:52;17.30;99.90
39525;DHT22;25203;50.754;6.978;2023-07-29T03:37:52;17.30;99.90
39525;DHT22;25203;50.754;6.978;2023-07-29T03:39:53;17.30;99.90
39525;DHT22;25203;50.754;6.978;2023-07-29T03:41:54;17.40;99.90
39525;DHT22;25203;50.754;6.978;2023-07-29T03:43:54;17.40;99.90
39525;DHT22;25203;50.754;6.978;2023-07-29T03:45:55;17.40;99.90
39525;DHT22;25203;50.754;6.978;2023-07-29T03:47:55;17.40;99.90
39525;DHT22;25203;50.754;6.978;2023-07-29T03:49:57;17.40;99.90
39525;DHT22;25203;50.754;6.978;2023-07-29T03:51:57;17.40;99.90
39525;DHT22;25203;50.754;6.978;2023-07-29T03:53:58;17.40;99.90
39525;DHT22;25203;50.754;6.978;2023-07-29T03:55:58;17.50;99.90
39525;DHT22;25203;50.754;6.978;2023-07-29T03:58:00;17.40;99.90
39525;DHT22;25203;50.754;6.978;2023-07-29T04:00:00;17.40;99.90
39525;DHT22;25203;50.754;6.978;2023-07-29T04:02:01;17.40;99.90
39525;DHT22;25203;50.754;6.978;2023-07-29T04:04:02;17.40;99.90
39525;DHT22;25203;50.754;6.978;2023-07-29T04:06:02;17.40;99.90
39525;DHT22;25203;50.754;6.978;2023-07-29T04:08:03;17.40;99.90
39525;DHT22;25203;50.754;6.978;2023-07-29T04:10:04;17.40;99.90
39525;DHT22;25203;50.754;6.978;2023-07-29T04:12:06;17.40;99.90
39525;DHT22;25203;50.754;6.978;2023-07-29T04:14:06;17.40;99.90
39525;DHT22;25203;50.754;6.978;2023-07-29T04:16:07;17.40;99.90
39525;DHT22;25203;50.754;6.978;2023-07-29T04:18:08;17.40;99.90
39525;DHT22;25203;50.754;6.978;2023-07-29T04:20:09;17.40;99.90
39525;DHT22;25203;50.754;6.978;2023-07-29T04:22:09;17.40;99.90
39525;DHT22;25203;50.754;6.978;2023-07-29T04:24:10;17.40;99.90
39525;DHT22;25203;50.754;6.978;2023-07-29T04:26:11;17.50;99.90
39525;DHT22;25203;50.754;6.978;2023-07-29T04:28:11;17.50;99.90
39525;DHT22;25203;50.754;6.978;2023-07-29T04:30:12;17.50;99.90
39525;DHT22;25203;50.754;6.978;2023-07-29T04:32:12;17.50;99.90
39525;DHT22;25203;50.754;6.978;2023-07-29T04:34:13;17.50;99.90
39525;DHT22;25203;50.754;6.978;2023-07-29T04:36:13;17.50;99.90
39525;DHT22;25203;50.754;6.978;2023-07-29T04:38:14;17.50;99.90
39525;DHT22;25203;50.754;6.978;2023-07-29T04:40:15;17.50;99.90
39525;DHT22;25203;50.754;6.978;2023-07-29T04:42:16;17.50;99.90
39525;DHT22;25203;50.754;6.978;2023-07-29T04:44:16;17.50;99.90
39525;DHT22;25203;50.754;6.978;2023-07-29T04:46:17;17.50;99.90
39525;DHT22;25203;50.754;6.978;2023-07-29T04:48:17;17.50;99.90
39525;DHT22;25203;50.754;6.978;2023-07-29T04:50:18;17.50;99.90
39525;DHT22;25203;50.754;6.978;2023-07-29T04:52:19;17.50;99.90
39525;DHT22;25203;50.754;6.978;2023-07-29T04:54:20;17.50;99.90
39525;DHT22;25203;50.754;6.978;2023-07-29T04:56:21;17.50;99.90
39525;DHT22;25203;50.754;6.978;2023-07-29T04:58:22;17.50;99.90
39525;DHT22;25203;50.754;6.978;2023-07-29T05:00:22;17.40;99.90
39525;DHT22;25203;50.754;6.978;2023-07-29T05:02:23;17.40;99.90
39525;DHT22;25203;50.754;6.978;2023-07-29T05:04:24;17.40;99.90
39525;DHT22;25203;50.754;6.978;2023-07-29T05:06:24;17.40;99.90
39525;DHT22;25203;50.754;6.978;2023-07-29T05:08:28;17.40;99.90
39525;DHT22;25203;50.754;6.978;2023-07-29T05:10:29;17.40;99.90
39525;DHT22;25203;50.754;6.978;2023-07-29T05:12:29;17.40;99.90
39525;DHT22;25203;50.754;6.978;2023-07-29T05:14:30;17.40;99.90
39525;DHT22;25203;50.754;6.978;2023-07-29T05:16:31;17.40;99.90
39525;DHT22;25203;50.754;6.978;2023-07-29T05:18:31;17.40;99.90
39525;DHT22;25203;50.754;6.978;2023-07-29T05:20:32;17.50;99.90
39525;DHT22;25203;50.754;6.978;2023-07-29T05:22:32;17.60;99.90
39525;DHT22;25203;50.754;6.978;2023-07-29T05:24:33;17.60;99.90
39525;DHT22;25203;50.754;6.978;2023-07-29T05:26:33;17.70;99.90
39525;DHT22;25203;50.754;6.978;2023-07-29T05:28:34;17.70;99.90
39525;DHT22;25203;50.754;6.978;2023-07-29T05:30:35;17.80;99.90
39525;DHT22;25203;50.754;6.978;2023-07-29T05:32:37;17.90;99.90
39525;DHT22;25203;50.754;6.978;2023-07-29T05:34:38;17.90;99.90
39525;DHT22;25203;50.754;6.978;2023-07-29T05:36:38;17.80;99.90
39525;DHT22;25203;50.754;6.978;2023-07-29T05:38:39;17.80;99.90
39525;DHT22;25203;50.754;6.978;2023-07-29T05:40:40;17.80;99.90
39525;DHT22;25203;50.754;6.978;2023-07-29T05:42:41;17.80;99.90
39525;DHT22;25203;50.754;6.978;2023-07-29T05:44:42;17.80;99.90
39525;DHT22;25203;50.754;6.978;2023-07-29T05:46:43;17.90;99.90
39525;DHT22;25203;50.754;6.978;2023-07-29T05:48:43;17.90;99.90
39525;DHT22;25203;50.754;6.978;2023-07-29T05:50:44;17.80;99.90
39525;DHT22;25203;50.754;6.978;2023-07-29T05:52:44;17.90;99.90
39525;DHT22;25203;50.754;6.978;2023-07-29T05:54:45;17.90;99.90
39525;DHT22;25203;50.754;6.978;2023-07-29T05:56:46;17.90;99.90
39525;DHT22;25203;50.754;6.978;2023-07-29T05:58:46;18.00;99.90
39525;DHT22;25203;50.754;6.978;2023-07-29T06:00:47;18.00;99.90
39525;DHT22;25203;50.754;6.978;2023-07-29T06:02:47;18.10;99.90
39525;DHT22;25203;50.754;6.978;2023-07-29T06:04:48;18.10;99.90
39525;DHT22;25203;50.754;6.978;2023-07-29T06:06:49;18.10;99.90
39525;DHT22;25203;50.754;6.978;2023-07-29T06:08:50;18.10;99.90
39525;DHT22;25203;50.754;6.978;2023-07-29T06:10:50;18.20;99.90
39525;DHT22;25203;50.754;6.978;2023-07-29T06:12:52;18.20;99.90
39525;DHT22;25203;50.754;6.978;2023-07-29T06:14:54;18.20;99.90
39525;DHT22;25203;50.754;6.978;2023-07-29T06:16:54;18.20;99.90
39525;DHT22;25203;50.754;6.978;2023-07-29T06:18:57;18.30;99.90
39525;DHT22;25203;50.754;6.978;2023-07-29T06:20:57;18.30;99.90
39525;DHT22;25203;50.754;6.978;2023-07-29T06:22:58;18.40;99.90
39525;DHT22;25203;50.754;6.978;2023-07-29T06:24:59;18.40;99.90
39525;DHT22;25203;50.754;6.978;2023-07-29T06:27:00;18.40;99.90
39525;DHT22;25203;50.754;6.978;2023-07-29T06:29:00;18.50;99.90
39525;DHT22;25203;50.754;6.978;2023-07-29T06:31:01;18.60;99.90
39525;DHT22;25203;50.754;6.978;2023-07-29T06:33:02;18.60;99.90
39525;DHT22;25203;50.754;6.978;2023-07-29T06:35:03;18.60;99.90
39525;DHT22;25203;50.754;6.978;2023-07-29T06:37:04;18.70;99.90
39525;DHT22;25203;50.754;6.978;2023-07-29T06:39:05;18.70;99.90
39525;DHT22;25203;50.754;6.978;2023-07-29T06:41:05;18.70;99.90
39525;DHT22;25203;50.754;6.978;2023-07-29T06:43:06;18.70;99.90
39525;DHT22;25203;50.754;6.978;2023-07-29T06:45:07;18.80;99.90
39525;DHT22;25203;50.754;6.978;2023-07-29T06:47:08;18.70;99.90
39525;DHT22;25203;50.754;6.978;2023-07-29T06:49:09;18.80;99.90
39525;DHT22;25203;50.754;6.978;2023-07-29T06:51:09;18.90;99.90
39525;DHT22;25203;50.754;6.978;2023-07-29T06:53:10;19.00;99.90
39525;DHT22;25203;50.754;6.978;2023-07-29T06:55:11;19.10;99.90
39525;DHT22;25203;50.754;6.978;2023-07-29T06:57:11;19.10;99.90
39525;DHT22;25203;50.754;6.978;2023-07-29T06:59:12;19.20;99.90
39525;DHT22;25203;50.754;6.978;2023-07-29T07:01:12;19.40;99.90
39525;DHT22;25203;50.754;6.978;2023-07-29T07:03:13;19.50;99.90
39525;DHT22;25203;50.754;6.978;2023-07-29T07:05:14;19.50;99.90
39525;DHT22;25203;50.754;6.978;2023-07-29T07:07:15;19.70;99.90
39525;DHT22;25203;50.754;6.978;2023-07-29T07:09:16;19.70;99.90
39525;DHT22;25203;50.754;6.978;2023-07-29T07:11:19;19.70;99.90
39525;DHT22;25203;50.754;6.978;2023-07-29T07:13:19;19.60;99.90
39525;DHT22;25203;50.754;6.978;2023-07-29T07:15:20;19.50;99.90
39525;DHT22;25203;50.754;6.978;2023-07-29T07:17:20;19.50;99.90
39525;DHT22;25203;50.754;6.978;2023-07-29T07:19:21;19.50;99.90
39525;DHT22;25203;50.754;6.978;2023-07-29T07:21:22;19.60;99.90
39525;DHT22;25203;50.754;6.978;2023-07-29T07:23:22;19.70;99.90
39525;DHT22;25203;50.754;6.978;2023-07-29T07:25:23;19.70;99.90
39525;DHT22;25203;50.754;6.978;2023-07-29T07:27:23;19.80;99.90
39525;DHT22;25203;50.754;6.978;2023-07-29T07:29:24;19.80;99.90
39525;DHT22;25203;50.754;6.978;2023-07-29T07:31:24;19.80;99.90
39525;DHT22;25203;50.754;6.978;2023-07-29T07:33:25;19.70;99.90
39525;DHT22;25203;50.754;6.978;2023-07-29T07:35:26;19.70;99.90
39525;DHT22;25203;50.754;6.978;2023-07-29T07:37:26;19.70;99.90
39525;DHT22;25203;50.754;6.978;2023-07-29T07:39:27;19.80;99.90
39525;DHT22;25203;50.754;6.978;2023-07-29T07:41:28;19.90;99.90
39525;DHT22;25203;50.754;6.978;2023-07-29T07:43:28;20.00;99.90
39525;DHT22;25203;50.754;6.978;2023-07-29T07:45:29;20.20;99.90
39525;DHT22;25203;50.754;6.978;2023-07-29T07:47:30;20.30;99.90
39525;DHT22;25203;50.754;6.978;2023-07-29T07:49:31;20.50;99.90
39525;DHT22;25203;50.754;6.978;2023-07-29T07:51:31;20.80;99.90
39525;DHT22;25203;50.754;6.978;2023-07-29T07:53:32;21.00;99.90
39525;DHT22;25203;50.754;6.978;2023-07-29T07:55:32;21.10;99.90
39525;DHT22;25203;50.754;6.978;2023-07-29T07:57:33;21.10;99.90
39525;DHT22;25203;50.754;6.978;2023-07-29T07:59:33;21.10;99.90
39525;DHT22;25203;50.754;6.978;2023-07-29T08:01:43;21.20;99.90
39525;DHT22;25203;50.754;6.978;2023-07-29T08:03:44;21.20;99.90
39525;DHT22;25203;50.754;6.978;2023-07-29T08:05:44;21.20;99.90
39525;DHT22;25203;50.754;6.978;2023-07-29T08:07:45;21.30;99.90
39525;DHT22;25203;50.754;6.978;2023-07-29T08:09:46;21.10;99.90
39525;DHT22;25203;50.754;6.978;2023-07-29T08:11:47;21.00;99.90
39525;DHT22;25203;50.754;6.978;2023-07-29T08:13:47;20.80;99.90
39525;DHT22;25203;50.754;6.978;2023-07-29T08:15:49;20.70;99.90
39525;DHT22;25203;50.754;6.978;2023-07-29T08:17:50;20.80;99.90
39525;DHT22;25203;50.754;6.978;2023-07-29T08:19:50;21.10;99.90
39525;DHT22;25203;50.754;6.978;2023-07-29T08:21:51;21.90;99.90
39525;DHT22;25203;50.754;6.978;2023-07-29T08:23:51;22.50;99.90
39525;DHT22;25203;50.754;6.978;2023-07-29T08:25:53;22.90;99.90
39525;DHT22;25203;50.754;6.978;2023-07-29T08:27:54;22.80;99.90
39525;DHT22;25203;50.754;6.978;2023-07-29T08:29:55;22.60;99.90
39525;DHT22;25203;50.754;6.978;2023-07-29T08:31:56;22.20;99.90
39525;DHT22;25203;50.754;6.978;2023-07-29T08:33:56;21.80;99.90
39525;DHT22;25203;50.754;6.978;2023-07-29T08:35:57;21.60;99.90
39525;DHT22;25203;50.754;6.978;2023-07-29T08:37:57;21.40;99.90
39525;DHT22;25203;50.754;6.978;2023-07-29T08:39:59;21.30;99.90
39525;DHT22;25203;50.754;6.978;2023-07-29T08:42:07;21.10;99.90
39525;DHT22;25203;50.754;6.978;2023-07-29T08:44:18;21.00;99.90
39525;DHT22;25203;50.754;6.978;2023-07-29T08:46:21;20.70;99.90
39525;DHT22;25203;50.754;6.978;2023-07-29T08:48:41;20.50;99.90
39525;DHT22;25203;50.754;6.978;2023-07-29T08:50:44;20.30;99.90
39525;DHT22;25203;50.754;6.978;2023-07-29T08:52:52;20.10;99.90
39525;DHT22;25203;50.754;6.978;2023-07-29T08:54:53;19.90;99.90
39525;DHT22;25203;50.754;6.978;2023-07-29T08:56:54;19.70;99.90
39525;DHT22;25203;50.754;6.978;2023-07-29T08:58:55;19.60;99.90
39525;DHT22;25203;50.754;6.978;2023-07-29T09:00:56;19.50;99.90
39525;DHT22;25203;50.754;6.978;2023-07-29T09:02:57;19.50;99.90
39525;DHT22;25203;50.754;6.978;2023-07-29T09:05:02;19.50;99.90
39525;DHT22;25203;50.754;6.978;2023-07-29T09:07:05;19.50;99.90
39525;DHT22;25203;50.754;6.978;2023-07-29T09:09:07;19.50;99.90
39525;DHT22;25203;50.754;6.978;2023-07-29T09:11:08;19.60;99.90
39525;DHT22;25203;50.754;6.978;2023-07-29T09:13:09;19.60;99.90
39525;DHT22;25203;50.754;6.978;2023-07-29T09:15:09;19.70;99.90
39525;DHT22;25203;50.754;6.978;2023-07-29T09:17:10;19.70;99.90
39525;DHT22;25203;50.754;6.978;2023-07-29T09:19:11;19.70;99.90
39525;DHT22;25203;50.754;6.978;2023-07-29T09:21:11;19.70;99.90
39525;DHT22;25203;50.754;6.978;2023-07-29T09:23:12;19.70;99.90
39525;DHT22;25203;50.754;6.978;2023-07-29T09:25:13;19.80;99.90
39525;DHT22;25203;50.754;6.978;2023-07-29T09:27:26;19.90;99.90
39525;DHT22;25203;50.754;6.978;2023-07-29T09:29:28;20.00;99.90
39525;DHT22;25203;50.754;6.978;2023-07-29T09:31:29;20.20;99.90
39525;DHT22;25203;50.754;6.978;2023-07-29T09:33:34;20.30;99.90
39525;DHT22;25203;50.754;6.978;2023-07-29T09:35:38;20.50;99.90
39525;DHT22;25203;50.754;6.978;2023-07-29T09:37:39;20.50;99.90
39525;DHT22;25203;50.754;6.978;2023-07-29T09:39:44;20.50;99.90
39525;DHT22;25203;50.754;6.978;2023-07-29T09:41:47;20.50;99.90
39525;DHT22;25203;50.754;6.978;2023-07-29T09:44:04;20.40;99.90
39525;DHT22;25203;50.754;6.978;2023-07-29T09:46:05;20.30;99.90
39525;DHT22;25203;50.754;6.978;2023-07-29T09:48:09;20.30;99.90
39525;DHT22;25203;50.754;6.978;2023-07-29T09:50:11;20.30;99.90
39525;DHT22;25203;50.754;6.978;2023-07-29T09:52:13;20.20;99.90
39525;DHT22;25203;50.754;6.978;2023-07-29T09:54:14;20.20;99.90
39525;DHT22;25203;50.754;6.978;2023-07-29T09:56:17;20.30;99.90
39525;DHT22;25203;50.754;6.978;2023-07-29T09:58:27;20.30;99.90
39525;DHT22;25203;50.754;6.978;2023-07-29T10:00:28;20.40;99.90
39525;DHT22;25203;50.754;6.978;2023-07-29T10:02:29;20.40;99.90
39525;DHT22;25203;50.754;6.978;2023-07-29T10:04:31;20.50;99.90
39525;DHT22;25203;50.754;6.978;2023-07-29T10:06:34;20.50;99.90
39525;DHT22;25203;50.754;6.978;2023-07-29T10:08:35;20.50;99.90
39525;DHT22;25203;50.754;6.978;2023-07-29T10:10:36;20.50;99.90
39525;DHT22;25203;50.754;6.978;2023-07-29T10:12:37;20.40;99.90
39525;DHT22;25203;50.754;6.978;2023-07-29T10:14:41;20.30;99.90
39525;DHT22;25203;50.754;6.978;2023-07-29T10:16:44;20.30;99.90
39525;DHT22;25203;50.754;6.978;2023-07-29T10:18:46;20.20;99.90
39525;DHT22;25203;50.754;6.978;2023-07-29T10:20:50;20.00;99.90
39525;DHT22;25203;50.754;6.978;2023-07-29T10:22:51;20.00;99.90
39525;DHT22;25203;50.754;6.978;2023-07-29T10:24:56;19.80;99.90
39525;DHT22;25203;50.754;6.978;2023-07-29T10:27:01;19.70;99.90
39525;DHT22;25203;50.754;6.978;2023-07-29T10:29:04;19.50;99.90
39525;DHT22;25203;50.754;6.978;2023-07-29T10:31:05;19.40;99.90
39525;DHT22;25203;50.754;6.978;2023-07-29T10:33:06;19.30;99.90
39525;DHT22;25203;50.754;6.978;2023-07-29T10:35:07;19.30;99.90
39525;DHT22;25203;50.754;6.978;2023-07-29T10:37:08;19.20;99.90
39525;DHT22;25203;50.754;6.978;2023-07-29T10:39:09;19.00;99.90
39525;DHT22;25203;50.754;6.978;2023-07-29T10:41:11;18.90;99.90
39525;DHT22;25203;50.754;6.978;2023-07-29T10:43:13;18.80;99.90
39525;DHT22;25203;50.754;6.978;2023-07-29T10:45:19;18.70;99.90
39525;DHT22;25203;50.754;6.978;2023-07-29T10:47:25;18.70;99.90
39525;DHT22;25203;50.754;6.978;2023-07-29T10:49:27;18.70;99.90
39525;DHT22;25203;50.754;6.978;2023-07-29T10:51:37;18.70;99.90
39525;DHT22;25203;50.754;6.978;2023-07-29T10:53:38;18.70;99.90
39525;DHT22;25203;50.754;6.978;2023-07-29T10:55:39;18.70;99.90
39525;DHT22;25203;50.754;6.978;2023-07-29T10:57:45;18.70;99.90
39525;DHT22;25203;50.754;6.978;2023-07-29T10:59:56;18.80;99.90
39525;DHT22;25203;50.754;6.978;2023-07-29T11:01:58;18.80;99.90
39525;DHT22;25203;50.754;6.978;2023-07-29T11:06:24;18.70;99.90
39525;DHT22;25203;50.754;6.978;2023-07-29T11:08:28;18.70;99.90
39525;DHT22;25203;50.754;6.978;2023-07-29T11:10:42;18.90;99.90
39525;DHT22;25203;50.754;6.978;2023-07-29T11:12:49;19.10;99.90
39525;DHT22;25203;50.754;6.978;2023-07-29T11:14:51;19.30;99.90
39525;DHT22;25203;50.754;6.978;2023-07-29T11:16:52;19.50;99.90
39525;DHT22;25203;50.754;6.978;2023-07-29T11:18:53;19.70;99.90
39525;DHT22;25203;50.754;6.978;2023-07-29T11:20:56;19.80;99.90
39525;DHT22;25203;50.754;6.978;2023-07-29T11:22:59;19.80;99.90
39525;DHT22;25203;50.754;6.978;2023-07-29T11:25:00;19.80;99.90
39525;DHT22;25203;50.754;6.978;2023-07-29T11:27:01;19.80;99.90
39525;DHT22;25203;50.754;6.978;2023-07-29T11:29:02;20.00;99.90
39525;DHT22;25203;50.754;6.978;2023-07-29T11:31:02;20.40;99.90
39525;DHT22;25203;50.754;6.978;2023-07-29T11:33:03;20.70;99.90
39525;DHT22;25203;50.754;6.978;2023-07-29T11:35:09;20.80;99.90
39525;DHT22;25203;50.754;6.978;2023-07-29T11:37:11;20.80;99.90
39525;DHT22;25203;50.754;6.978;2023-07-29T11:39:11;20.70;99.90
39525;DHT22;25203;50.754;6.978;2023-07-29T11:41:12;20.70;99.90
39525;DHT22;25203;50.754;6.978;2023-07-29T11:43:17;20.60;99.90
39525;DHT22;25203;50.754;6.978;2023-07-29T11:45:20;20.70;99.90
39525;DHT22;25203;50.754;6.978;2023-07-29T11:47:21;20.80;99.90
39525;DHT22;25203;50.754;6.978;2023-07-29T11:49:22;21.00;99.90
39525;DHT22;25203;50.754;6.978;2023-07-29T11:51:23;21.50;99.90
39525;DHT22;25203;50.754;6.978;2023-07-29T11:53:27;22.20;99.90
39525;DHT22;25203;50.754;6.978;2023-07-29T11:55:28;23.50;99.90
39525;DHT22;25203;50.754;6.978;2023-07-29T11:57:30;24.50;99.90
39525;DHT22;25203;50.754;6.978;2023-07-29T11:59:32;25.30;99.90
39525;DHT22;25203;50.754;6.978;2023-07-29T12:01:33;26.40;99.90
39525;DHT22;25203;50.754;6.978;2023-07-29T12:03:34;27.20;99.90
39525;DHT22;25203;50.754;6.978;2023-07-29T12:05:35;27.10;97.50
39525;DHT22;25203;50.754;6.978;2023-07-29T12:07:38;26.80;98.30
39525;DHT22;25203;50.754;6.978;2023-07-29T12:09:40;26.40;99.40
39525;DHT22;25203;50.754;6.978;2023-07-29T12:11:41;26.10;99.90
39525;DHT22;25203;50.754;6.978;2023-07-29T12:13:43;25.70;99.90
39525;DHT22;25203;50.754;6.978;2023-07-29T12:15:43;25.70;99.90
39525;DHT22;25203;50.754;6.978;2023-07-29T12:17:44;26.40;99.90
39525;DHT22;25203;50.754;6.978;2023-07-29T12:19:44;27.40;99.40
39525;DHT22;25203;50.754;6.978;2023-07-29T12:21:45;28.00;97.80
39525;DHT22;25203;50.754;6.978;2023-07-29T12:23:46;28.50;94.50
39525;DHT22;25203;50.754;6.978;2023-07-29T12:25:47;28.60;96.30
39525;DHT22;25203;50.754;6.978;2023-07-29T12:27:47;29.00;95.20
39525;DHT22;25203;50.754;6.978;2023-07-29T12:29:51;29.00;91.90
39525;DHT22;25203;50.754;6.978;2023-07-29T12:32:02;29.00;91.40
39525;DHT22;25203;50.754;6.978;2023-07-29T12:34:03;28.90;92.10
39525;DHT22;25203;50.754;6.978;2023-07-29T12:36:04;28.60;92.30
39525;DHT22;25203;50.754;6.978;2023-07-29T12:38:05;28.40;93.40
39525;DHT22;25203;50.754;6.978;2023-07-29T12:40:06;28.20;93.50
39525;DHT22;25203;50.754;6.978;2023-07-29T12:42:07;28.30;92.90
39525;DHT22;25203;50.754;6.978;2023-07-29T12:44:07;28.50;92.40
39525;DHT22;25203;50.754;6.978;2023-07-29T12:46:08;28.70;92.30
39525;DHT22;25203;50.754;6.978;2023-07-29T12:48:09;28.10;92.40
39525;DHT22;25203;50.754;6.978;2023-07-29T12:50:11;28.10;93.30
39525;DHT22;25203;50.754;6.978;2023-07-29T12:52:11;28.40;92.70
39525;DHT22;25203;50.754;6.978;2023-07-29T12:54:12;28.20;90.00
39525;DHT22;25203;50.754;6.978;2023-07-29T12:56:13;28.10;92.20